Time;durP1;ratioP1;P1;durP2;ratioP2;P2;SDS_P1;SDS_P2;PMS_P1;PMS_P2;Temp;Humidity;BMP_temperature;BMP_pressure;BME280_temperature;BME280_humidity;BME280_pressure;Samples;Min_cycle;Max_cycle;Signal;HPM_P1;HPM_P2
2024/01/07 00:01:38;;;;;;;25.00;13.80;;;;;;;-5.21;73.96;100209.45;103452;1253;109585;-68
2024/01/07 00:04:05;;;;;;;23.40;14.70;;;;;;;-5.19;74.09;100210.73;103236;1253;137807;-69
2024/01/07 00:06:32;;;;;;;24.00;14.70;;;;;;;-5.19;73.81;100203.95;103390;1252;96462;-69
2024/01/07 00:08:59;;;;;;;25.20;14.90;;;;;;;-5.21;74.03;100200.49;103490;1253;138236;-69
2024/01/07 00:11:26;;;;;;;23.00;14.20;;;;;;;-5.22;74.13;100204.16;103753;1253;96433;-69
2024/01/07 00:13:53;;;;;;;24.70;14.30;;;;;;;-5.22;73.90;100206.36;103486;1257;109206;-70
2024/01/07 00:16:20;;;;;;;26.30;15.70;;;;;;;-5.24;74.19;100207.33;103242;1257;138362;-68
2024/01/07 00:18:47;;;;;;;22.30;14.40;;;;;;;-5.26;74.57;100209.83;103388;1253;96494;-68
2024/01/07 00:21:14;;;;;;;25.70;15.20;;;;;;;-5.27;74.50;100206.41;103259;1254;139111;-68
2024/01/07 00:23:41;;;;;;;22.30;14.20;;;;;;;-5.29;74.45;100209.39;102633;1253;1002523;-69
2024/01/07 00:26:09;;;;;;;22.80;13.10;;;;;;;-5.29;74.82;100208.89;103452;1253;109735;-69
2024/01/07 00:28:39;;;;;;;21.90;13.20;;;;;;;-5.28;74.94;100211.11;102504;1257;1003100;-68
2024/01/07 00:31:08;;;;;;;23.10;12.80;;;;;;;-5.24;74.44;100205.80;103415;1254;96459;-68
2024/01/07 00:33:37;;;;;;;24.60;13.60;;;;;;;-5.16;74.74;100212.67;102470;1252;1003575;-68
2024/01/07 00:36:05;;;;;;;25.20;14.10;;;;;;;-5.11;74.83;100214.34;103349;1259;95700;-68
2024/01/07 00:38:32;;;;;;;23.80;13.90;;;;;;;-5.08;74.64;100220.02;103681;1253;137993;-68
2024/01/07 00:40:59;;;;;;;24.30;14.80;;;;;;;-5.07;74.40;100221.76;103389;1253;107581;-69
2024/01/07 00:43:26;;;;;;;24.70;14.90;;;;;;;-5.07;74.50;100224.45;102665;1253;1003351;-69
2024/01/07 00:45:53;;;;;;;25.40;15.30;;;;;;;-5.11;74.60;100222.15;102506;1253;1003600;-68
2024/01/07 00:48:20;;;;;;;25.70;15.80;;;;;;;-5.11;74.56;100225.17;103258;1259;96541;-68
2024/01/07 00:50:47;;;;;;;27.10;16.00;;;;;;;-5.13;74.63;100220.55;103346;1253;138046;-68
2024/01/07 00:53:13;;;;;;;26.30;16.30;;;;;;;-5.16;74.70;100224.89;103427;1253;107921;-69
2024/01/07 00:55:40;;;;;;;26.70;15.50;;;;;;;-5.20;74.56;100227.14;103400;1253;96890;-68
2024/01/07 00:58:07;;;;;;;27.20;14.90;;;;;;;-5.26;75.01;100232.68;103278;1253;137955;-68
2024/01/07 01:00:37;;;;;;;23.00;14.30;;;;;;;-5.30;74.98;100232.74;103346;1253;96540;-69
2024/01/07 01:03:04;;;;;;;20.00;12.80;;;;;;;-5.39;75.22;100220.92;103272;1253;139273;-69
2024/01/07 01:05:31;;;;;;;21.50;12.80;;;;;;;-5.29;75.36;100239.05;103341;1253;107311;-68
2024/01/07 01:07:58;;;;;;;21.00;13.10;;;;;;;-5.24;74.94;100238.52;103786;1252;96465;-69
2024/01/07 01:10:25;;;;;;;23.80;13.60;;;;;;;-5.17;75.42;100241.48;103687;1257;138051;-70
2024/01/07 01:12:54;;;;;;;22.70;13.30;;;;;;;-5.10;75.50;100239.65;103472;1253;96447;-69
2024/01/07 01:15:21;;;;;;;22.70;14.10;;;;;;;-5.06;75.17;100240.08;103300;1253;137791;-69
2024/01/07 01:17:48;;;;;;;26.60;14.70;;;;;;;-5.04;75.25;100238.80;103220;1256;107407;-69
2024/01/07 01:20:15;;;;;;;22.30;13.90;;;;;;;-5.02;75.16;100240.38;103933;1256;96722;-68
2024/01/07 01:22:42;;;;;;;24.20;14.70;;;;;;;-5.03;74.79;100236.44;103377;1253;138222;-69
2024/01/07 01:25:11;;;;;;;20.70;13.70;;;;;;;-5.03;75.08;100235.76;103761;1257;96458;-68
2024/01/07 01:27:38;;;;;;;19.50;12.20;;;;;;;-5.05;75.00;100235.04;103285;1254;137910;-68
2024/01/07 01:30:05;;;;;;;20.80;12.70;;;;;;;-5.06;74.99;100236.88;103414;1253;107574;-69
2024/01/07 01:32:32;;;;;;;19.70;13.40;;;;;;;-5.08;74.67;100238.31;103688;1253;138348;-68
2024/01/07 01:34:59;;;;;;;21.70;12.50;;;;;;;-5.14;74.75;100241.38;103290;1253;108003;-68
2024/01/07 01:37:26;;;;;;;17.90;10.60;;;;;;;-5.16;74.73;100243.19;104016;1253;96394;-69
2024/01/07 01:39:54;;;;;;;16.80;11.10;;;;;;;-5.18;74.54;100243.48;104208;1256;138691;-69
2024/01/07 01:42:20;;;;;;;15.50;10.60;;;;;;;-5.20;75.07;100237.30;103315;1256;107714;-69
2024/01/07 01:44:48;;;;;;;15.40;9.40;;;;;;;-5.16;74.77;100243.02;102753;1253;1003440;-68
2024/01/07 01:47:16;;;;;;;17.10;10.10;;;;;;;-5.13;74.91;100240.89;103453;1257;107991;-68
2024/01/07 01:49:43;;;;;;;14.80;9.80;;;;;;;-5.07;75.02;100234.80;103330;1253;96470;-70
2024/01/07 01:52:11;;;;;;;14.90;10.10;;;;;;;-5.00;74.99;100234.18;103311;1253;138025;-68
2024/01/07 01:54:38;;;;;;;15.80;10.40;;;;;;;-4.93;74.76;100229.64;102639;1253;1016279;-69
2024/01/07 01:57:05;;;;;;;14.90;10.50;;;;;;;-4.90;74.76;100229.56;104056;1253;139127;-69
2024/01/07 01:59:34;;;;;;;16.30;11.10;;;;;;;-4.85;74.82;100230.55;101818;1253;1003784;-70
2024/01/07 02:02:02;;;;;;;17.40;11.40;;;;;;;-4.83;74.60;100228.08;103356;1253;96450;-68
2024/01/07 02:04:29;;;;;;;15.50;11.20;;;;;;;-4.80;74.52;100232.06;103335;1253;139000;-68
2024/01/07 02:06:56;;;;;;;15.40;10.90;;;;;;;-4.79;74.83;100228.69;103350;1253;107155;-70
2024/01/07 02:09:23;;;;;;;17.30;11.20;;;;;;;-4.80;74.90;100236.80;103320;1253;137733;-68
2024/01/07 02:12:04;;;;;;;16.30;10.30;;;;;;;-4.82;74.45;100232.68;103399;1253;107500;-70
2024/01/07 02:14:31;;;;;;;15.10;10.10;;;;;;;-4.83;74.71;100232.80;103470;1253;138857;-69
2024/01/07 02:16:58;;;;;;;17.00;11.30;;;;;;;-4.89;74.58;100229.58;103628;1253;108872;-69
2024/01/07 02:19:25;;;;;;;13.70;9.10;;;;;;;-4.97;74.63;100230.37;102580;1256;1003055;-69
2024/01/07 02:21:53;;;;;;;12.40;8.90;;;;;;;-5.06;74.62;100228.21;102520;1257;1003784;-70
2024/01/07 02:24:20;;;;;;;14.30;9.00;;;;;;;-5.06;74.83;100225.67;103396;1253;108017;-70
2024/01/07 02:26:47;;;;;;;13.20;8.30;;;;;;;-5.04;74.68;100223.02;103739;1253;139864;-69
2024/01/07 02:29:15;;;;;;;14.60;9.50;;;;;;;-4.96;75.07;100229.71;103466;1254;110099;-69
2024/01/07 02:31:41;;;;;;;15.00;9.80;;;;;;;-4.88;75.04;100232.48;103881;1253;107782;-68
2024/01/07 02:34:09;;;;;;;14.30;10.10;;;;;;;-4.84;74.78;100230.42;103526;1253;137718;-69
2024/01/07 02:36:36;;;;;;;16.40;10.10;;;;;;;-4.78;74.73;100235.84;103552;1253;106995;-68
2024/01/07 02:39:03;;;;;;;15.70;10.60;;;;;;;-4.77;74.52;100232.64;103350;1257;139273;-68
2024/01/07 02:41:30;;;;;;;16.50;10.40;;;;;;;-4.79;74.46;100233.27;103510;1253;109421;-67
2024/01/07 02:43:57;;;;;;;15.60;11.00;;;;;;;-4.82;73.95;100229.61;103479;1257;107760;-68
2024/01/07 02:46:26;;;;;;;16.60;10.90;;;;;;;-4.87;74.28;100232.37;103490;1257;138165;-69
2024/01/07 02:48:53;;;;;;;16.50;11.10;;;;;;;-4.90;73.73;100229.05;103530;1253;107743;-69
2024/01/07 02:51:20;;;;;;;17.60;11.60;;;;;;;-5.00;73.67;100227.23;103245;1253;138276;-70
2024/01/07 02:53:46;;;;;;;19.00;11.60;;;;;;;-5.08;73.98;100227.99;103401;1254;109567;-68
2024/01/07 02:56:13;;;;;;;16.60;11.60;;;;;;;-5.16;73.88;100232.52;103601;1255;106658;-69
2024/01/07 02:58:41;;;;;;;17.60;12.10;;;;;;;-5.23;74.27;100230.23;103292;1256;139186;-70
2024/01/07 03:01:40;;;;;;;18.50;11.80;;;;;;;-5.28;74.13;100233.48;103939;1251;109256;31
2024/01/07 03:04:08;;;;;;;18.20;11.40;;;;;;;-5.30;74.45;100228.00;103771;1260;138569;-67
2024/01/07 03:06:35;;;;;;;16.40;11.00;;;;;;;-5.27;74.77;100229.60;103360;1257;109878;-70
2024/01/07 03:09:02;;;;;;;15.20;10.90;;;;;;;-5.24;74.45;100229.36;103156;1259;138997;-69
2024/01/07 03:11:30;;;;;;;17.40;11.10;;;;;;;-5.19;74.60;100234.28;103306;1255;96690;-69
2024/01/07 03:13:57;;;;;;;18.50;12.20;;;;;;;-5.16;74.48;100231.32;102474;1260;1002959;-69
2024/01/07 03:16:25;;;;;;;17.70;11.80;;;;;;;-5.10;74.29;100232.85;103299;1259;138130;-69
2024/01/07 03:18:52;;;;;;;18.90;12.40;;;;;;;-5.09;73.99;100232.02;102503;1256;1003575;-70
2024/01/07 03:21:24;;;;;;;18.50;11.80;;;;;;;-5.11;73.88;100227.89;104113;1257;138114;-69
2024/01/07 03:23:52;;;;;;;17.80;12.10;;;;;;;-5.15;73.73;100231.70;103672;1257;96725;-69
2024/01/07 03:26:19;;;;;;;17.10;12.50;;;;;;;-5.19;73.70;100236.80;103356;1258;107908;-69
2024/01/07 03:28:46;;;;;;;16.80;12.60;;;;;;;-5.25;73.89;100235.26;103243;1257;138460;-69
2024/01/07 03:31:15;;;;;;;17.50;12.70;;;;;;;-5.27;74.34;100235.54;103359;1258;110272;-69
2024/01/07 03:33:43;;;;;;;20.60;13.00;;;;;;;-5.29;74.06;100239.55;103434;1258;139069;-69
2024/01/07 03:36:12;;;;;;;18.40;12.40;;;;;;;-5.33;73.95;100235.71;102660;1257;1003024;-69
2024/01/07 03:38:40;;;;;;;19.70;13.10;;;;;;;-5.40;73.82;100236.30;103179;1260;139678;-69
2024/01/07 03:41:07;;;;;;;18.30;12.00;;;;;;;-5.49;73.98;100236.56;103269;1257;97086;-69
2024/01/07 03:43:34;;;;;;;17.00;11.80;;;;;;;-5.50;74.17;100237.71;103311;1258;110964;-69
2024/01/07 03:46:01;;;;;;;18.60;12.20;;;;;;;-5.51;74.15;100234.98;103142;1258;139193;-70
2024/01/07 03:48:29;;;;;;;16.80;10.70;;;;;;;-5.50;74.40;100239.05;103230;1258;96437;-69
2024/01/07 03:50:56;;;;;;;17.40;11.20;;;;;;;-5.48;74.92;100241.33;103139;1260;138741;-71
2024/01/07 03:53:23;;;;;;;14.60;10.40;;;;;;;-5.46;74.10;100243.92;103309;1257;96443;-70
2024/01/07 03:55:50;;;;;;;15.60;10.40;;;;;;;-5.42;74.49;100248.28;101784;1260;1003018;-70
2024/01/07 03:58:17;;;;;;;16.40;10.90;;;;;;;-5.35;73.96;100247.34;103141;1259;138243;-70
2024/01/07 04:00:44;;;;;;;18.50;11.90;;;;;;;-5.36;74.17;100248.50;103317;1257;97791;-70
2024/01/07 04:03:11;;;;;;;17.50;11.60;;;;;;;-5.39;73.73;100246.52;103157;1258;137948;-69
2024/01/07 04:05:38;;;;;;;16.90;11.40;;;;;;;-5.41;74.07;100248.99;103185;1257;97690;-69
2024/01/07 04:08:06;;;;;;;18.60;12.00;;;;;;;-5.44;73.56;100250.08;103211;1258;110846;-69
2024/01/07 04:10:33;;;;;;;18.40;12.00;;;;;;;-5.50;73.70;100252.79;103207;1257;138857;-69
2024/01/07 04:12:59;;;;;;;19.80;12.00;;;;;;;-5.58;73.47;100244.73;103231;1259;97861;-69
2024/01/07 04:15:26;;;;;;;18.20;12.40;;;;;;;-5.59;73.73;100252.31;102424;1260;1003705;-70
2024/01/07 04:17:53;;;;;;;17.30;11.70;;;;;;;-5.61;73.90;100254.28;103274;1255;97707;-68
2024/01/07 04:20:21;;;;;;;17.20;11.60;;;;;;;-5.63;73.65;100253.71;103229;1257;111110;-69
2024/01/07 04:22:48;;;;;;;17.30;12.10;;;;;;;-5.67;73.86;100253.06;103178;1256;138029;-69
2024/01/07 04:25:15;;;;;;;17.00;12.30;;;;;;;-5.68;73.87;100253.72;103268;1257;97908;-68
2024/01/07 04:27:41;;;;;;;18.60;12.00;;;;;;;-5.73;73.59;100256.09;103100;1256;138142;-70
2024/01/07 04:30:10;;;;;;;17.60;11.00;;;;;;;-5.74;73.69;100257.57;102457;1260;1003218;-70
2024/01/07 04:32:37;;;;;;;16.70;11.10;;;;;;;-5.74;73.73;100257.09;103022;1257;139546;-69
2024/01/07 04:35:06;;;;;;;16.10;10.60;;;;;;;-5.75;74.04;100258.89;103147;1257;106933;-69
2024/01/07 04:37:33;;;;;;;16.10;10.20;;;;;;;-5.74;74.01;100258.29;104444;1257;98767;-69
2024/01/07 04:40:00;;;;;;;14.20;9.10;;;;;;;-5.67;74.15;100260.52;103159;1257;138708;-69
2024/01/07 04:42:27;;;;;;;14.70;9.90;;;;;;;-5.57;74.33;100256.80;103258;1257;97891;-69
2024/01/07 04:44:54;;;;;;;15.30;10.20;;;;;;;-5.45;73.97;100256.83;103135;1257;138839;-69
2024/01/07 04:47:29;;;;;;;19.30;11.30;;;;;;;-5.38;73.71;100255.55;103184;1257;107729;-69
2024/01/07 04:49:56;;;;;;;17.90;10.30;;;;;;;-5.31;73.65;100255.09;102510;1258;1003513;-69
2024/01/07 04:52:24;;;;;;;14.70;10.50;;;;;;;-5.28;73.50;100256.55;103102;1257;138206;-69
2024/01/07 04:54:52;;;;;;;19.50;11.10;;;;;;;-5.25;73.57;100253.42;102424;1256;1002916;-70
2024/01/07 04:57:19;;;;;;;16.10;10.50;;;;;;;-5.25;73.50;100254.76;103088;1257;139352;-69
2024/01/07 04:59:46;;;;;;;14.20;10.20;;;;;;;-5.25;73.13;100259.15;103108;1258;107218;-70
2024/01/07 05:02:13;;;;;;;14.60;10.70;;;;;;;-5.26;73.31;100260.84;103779;1256;96177;-68
2024/01/07 05:04:41;;;;;;;15.80;11.30;;;;;;;-5.27;72.88;100262.48;103023;1260;138678;-68
2024/01/07 05:07:07;;;;;;;18.40;11.70;;;;;;;-5.33;72.90;100262.80;103160;1257;98209;-68
2024/01/07 05:09:35;;;;;;;19.80;11.50;;;;;;;-5.36;73.19;100262.90;102397;1257;1003054;-69
2024/01/07 05:12:02;;;;;;;17.70;11.40;;;;;;;-5.38;73.29;100267.39;102484;1256;1003014;-67
2024/01/07 05:14:29;;;;;;;17.10;11.70;;;;;;;-5.43;72.98;100266.38;103083;1260;138688;-68
2024/01/07 05:16:57;;;;;;;17.80;12.30;;;;;;;-5.53;72.69;100272.17;103225;1257;107954;-69
2024/01/07 05:19:24;;;;;;;15.50;11.60;;;;;;;-5.59;72.83;100273.84;103265;1260;98345;-69
2024/01/07 05:21:51;;;;;;;15.00;10.80;;;;;;;-5.66;73.26;100279.70;103173;1258;139084;-68
2024/01/07 05:24:18;;;;;;;15.00;9.60;;;;;;;-5.69;73.36;100287.05;103187;1257;107344;-69
2024/01/07 05:26:45;;;;;;;14.10;10.00;;;;;;;-5.70;73.46;100284.31;102318;1259;1003231;-69
2024/01/07 05:29:13;;;;;;;12.00;8.80;;;;;;;-5.70;73.56;100280.76;103193;1260;107353;-70
2024/01/07 05:31:40;;;;;;;13.60;9.40;;;;;;;-5.62;73.32;100284.73;103525;1257;97802;-68
2024/01/07 05:34:07;;;;;;;15.20;10.00;;;;;;;-5.57;73.35;100285.42;103205;1257;138730;-68
2024/01/07 05:36:34;;;;;;;16.10;10.60;;;;;;;-5.53;73.40;100285.92;103183;1256;108248;-68
2024/01/07 05:39:02;;;;;;;14.10;10.40;;;;;;;-5.53;73.07;100286.77;103099;1260;138237;-69
2024/01/07 05:41:29;;;;;;;15.60;10.50;;;;;;;-5.55;72.83;100283.80;103260;1257;108702;-68
2024/01/07 05:43:56;;;;;;;15.50;10.10;;;;;;;-5.64;72.39;100287.91;103250;1260;97689;-68
2024/01/07 05:46:22;;;;;;;16.80;10.50;;;;;;;-5.71;72.50;100290.70;103123;1258;138051;-68
2024/01/07 05:48:50;;;;;;;14.90;10.40;;;;;;;-5.78;72.57;100295.38;103107;1255;106815;-68
2024/01/07 05:51:17;;;;;;;15.90;10.40;;;;;;;-5.81;73.00;100293.94;103971;1257;138827;-68
2024/01/07 05:53:45;;;;;;;16.60;10.70;;;;;;;-5.82;73.25;100294.23;101723;1257;1003697;-69
2024/01/07 05:56:12;;;;;;;15.20;10.40;;;;;;;-5.85;73.03;100287.87;103340;1256;97827;-69
2024/01/07 05:58:39;;;;;;;16.20;10.80;;;;;;;-5.86;73.30;100289.70;103080;1257;137964;-68
2024/01/07 06:01:08;;;;;;;15.70;10.60;;;;;;;-5.86;73.31;100282.23;103264;1256;107775;-68
2024/01/07 06:03:36;;;;;;;14.50;10.50;;;;;;;-5.86;73.15;100283.41;103145;1257;139317;-69
2024/01/07 06:06:03;;;;;;;16.80;10.00;;;;;;;-5.90;73.38;100290.25;102438;1256;1003700;-69
2024/01/07 06:08:30;;;;;;;14.90;10.60;;;;;;;-5.94;73.18;100292.99;103428;1257;138922;-68
2024/01/07 06:10:57;;;;;;;17.20;9.90;;;;;;;-5.93;73.21;100292.69;103309;1257;111393;-69
2024/01/07 06:13:24;;;;;;;13.00;8.90;;;;;;;-5.91;73.51;100293.10;103186;1257;107367;-69
2024/01/07 06:15:51;;;;;;;15.10;9.40;;;;;;;-5.82;73.66;100295.42;103163;1256;138578;-70
2024/01/07 06:18:18;;;;;;;11.80;8.90;;;;;;;-5.74;73.37;100298.72;103199;1256;107572;-68
2024/01/07 06:20:45;;;;;;;15.70;10.60;;;;;;;-5.70;73.29;100295.33;103104;1261;138536;-68
2024/01/07 06:23:12;;;;;;;14.80;10.70;;;;;;;-5.65;73.28;100298.19;103323;1256;110815;-68
2024/01/07 06:25:39;;;;;;;14.20;10.10;;;;;;;-5.62;72.98;100299.83;103156;1257;106854;-68
2024/01/07 06:28:07;;;;;;;14.70;10.50;;;;;;;-5.63;73.10;100301.81;102979;1259;138192;-68
2024/01/07 06:30:34;;;;;;;15.30;10.80;;;;;;;-5.66;72.68;100307.83;102757;1260;1003161;-68
2024/01/07 06:33:01;;;;;;;16.10;10.90;;;;;;;-5.68;72.91;100307.40;103002;1257;138888;-70
2024/01/07 06:35:28;;;;;;;15.30;10.10;;;;;;;-5.71;72.73;100314.74;103201;1257;111832;-68
2024/01/07 06:37:55;;;;;;;19.30;11.20;;;;;;;-5.75;72.76;100313.44;103153;1257;108668;-70
2024/01/07 06:40:23;;;;;;;15.60;11.00;;;;;;;-5.78;72.53;100317.23;102414;1256;1002636;-67
2024/01/07 06:42:49;;;;;;;15.00;10.50;;;;;;;-5.80;72.85;100323.09;102371;1256;1002599;-69
2024/01/07 06:45:18;;;;;;;15.60;10.80;;;;;;;-5.80;72.70;100324.10;103109;1256;138378;-69
2024/01/07 06:47:46;;;;;;;15.30;10.80;;;;;;;-5.81;72.94;100322.04;103436;1256;111227;-69
2024/01/07 06:50:13;;;;;;;14.20;10.70;;;;;;;-5.86;73.00;100326.94;102422;1259;1003522;-70
2024/01/07 06:52:40;;;;;;;14.70;9.60;;;;;;;-5.93;72.82;100330.13;103375;1256;138168;-69
2024/01/07 06:55:09;;;;;;;14.20;9.60;;;;;;;-5.96;72.84;100335.73;103186;1256;107463;-69
2024/01/07 06:57:36;;;;;;;13.60;9.10;;;;;;;-5.98;72.93;100336.01;103143;1259;139061;-69
2024/01/07 07:00:04;;;;;;;12.50;8.50;;;;;;;-5.98;72.96;100336.67;103226;1260;112092;-69
2024/01/07 07:02:31;;;;;;;15.10;9.50;;;;;;;-5.96;72.93;100340.83;103069;1257;138444;-69
2024/01/07 07:04:58;;;;;;;14.20;9.70;;;;;;;-5.93;73.04;100342.12;103145;1260;97843;-70
2024/01/07 07:07:25;;;;;;;13.60;10.00;;;;;;;-5.90;73.00;100344.61;103208;1257;107387;-70
2024/01/07 07:09:52;;;;;;;14.10;9.90;;;;;;;-5.86;73.12;100345.05;103209;1260;139780;-70
2024/01/07 07:12:20;;;;;;;13.40;9.40;;;;;;;-5.83;73.34;100343.65;102516;1256;1003739;-70
2024/01/07 07:14:47;;;;;;;15.50;10.50;;;;;;;-5.86;72.73;100344.04;103009;1256;138364;-70
2024/01/07 07:17:14;;;;;;;15.20;10.30;;;;;;;-5.94;72.51;100347.36;103275;1256;98363;-70
2024/01/07 07:19:41;;;;;;;12.90;9.50;;;;;;;-6.01;72.48;100349.98;103217;1259;108472;-70
2024/01/07 07:22:11;;;;;;;15.40;9.70;;;;;;;-6.07;72.54;100348.92;102407;1256;1003334;-70
2024/01/07 07:24:42;;;;;;;15.20;10.10;;;;;;;-6.11;72.72;100348.11;102921;1257;1002904;-69
2024/01/07 07:27:09;;;;;;;14.10;9.70;;;;;;;-6.14;72.82;100348.67;103317;1256;138369;-70
2024/01/07 07:29:36;;;;;;;16.90;10.80;;;;;;;-6.19;73.01;100348.50;103261;1258;97789;-70
2024/01/07 07:32:03;;;;;;;17.40;10.30;;;;;;;-6.25;72.82;100345.40;103270;1260;107880;-70
2024/01/07 07:34:30;;;;;;;13.50;9.40;;;;;;;-6.28;73.36;100344.59;103204;1258;139403;-70
2024/01/07 07:36:57;;;;;;;14.10;9.30;;;;;;;-6.25;73.35;100347.42;103219;1259;111353;-69
2024/01/07 07:39:24;;;;;;;12.90;8.70;;;;;;;-6.18;73.41;100352.24;103041;1256;138817;-69
2024/01/07 07:41:51;;;;;;;14.10;9.10;;;;;;;-6.09;73.52;100353.57;102498;1256;1003357;-68
2024/01/07 07:44:18;;;;;;;15.40;9.00;;;;;;;-6.05;73.19;100352.71;103288;1256;108179;-69
2024/01/07 07:46:45;;;;;;;15.30;9.30;;;;;;;-5.99;73.40;100353.91;103055;1256;138034;-70
2024/01/07 07:49:12;;;;;;;15.60;9.50;;;;;;;-5.90;73.55;100354.27;103272;1256;111867;-69
2024/01/07 07:51:39;;;;;;;16.90;9.40;;;;;;;-5.83;73.53;100360.75;103151;1256;138308;-69
2024/01/07 07:54:06;;;;;;;13.40;9.60;;;;;;;-5.77;73.35;100364.34;103178;1256;98465;-69
2024/01/07 07:56:33;;;;;;;13.00;9.70;;;;;;;-5.71;73.12;100362.84;103094;1256;139301;-69
2024/01/07 07:59:00;;;;;;;13.70;9.70;;;;;;;-5.69;72.87;100367.68;103283;1260;97798;-69
2024/01/07 08:01:27;;;;;;;13.90;10.00;;;;;;;-5.68;73.33;100368.37;103207;1258;111364;-69
2024/01/07 08:03:54;;;;;;;14.50;9.40;;;;;;;-5.61;73.51;100372.52;103036;1258;138636;-69
2024/01/07 08:06:21;;;;;;;15.70;9.80;;;;;;;-5.56;73.55;100372.05;103232;1256;98429;-69
2024/01/07 08:08:48;;;;;;;13.80;9.70;;;;;;;-5.53;73.16;100371.46;102327;1256;1003040;-69
2024/01/07 08:11:15;;;;;;;16.30;9.90;;;;;;;-5.50;73.15;100369.52;103212;1258;97806;-69
2024/01/07 08:13:42;;;;;;;15.10;9.70;;;;;;;-5.48;73.18;100371.30;103188;1256;110700;-69
2024/01/07 08:16:10;;;;;;;14.50;10.10;;;;;;;-5.45;72.87;100375.08;102314;1256;1003503;-69
2024/01/07 08:18:37;;;;;;;16.10;10.60;;;;;;;-5.49;72.52;100382.10;103144;1255;98368;-69
2024/01/07 08:21:04;;;;;;;13.70;9.20;;;;;;;-5.51;72.69;100383.56;103142;1259;138238;-70
2024/01/07 08:23:31;;;;;;;12.60;8.90;;;;;;;-5.50;72.33;100387.14;103311;1255;97797;-68
2024/01/07 08:25:59;;;;;;;12.10;8.80;;;;;;;-5.49;72.08;100390.06;103242;1256;110844;-70
2024/01/07 08:28:25;;;;;;;14.20;8.40;;;;;;;-5.42;72.66;100391.61;103221;1256;139109;-71
2024/01/07 08:30:53;;;;;;;11.70;8.30;;;;;;;-5.34;72.31;100391.75;103245;1256;97656;-68
2024/01/07 08:33:20;;;;;;;12.70;9.20;;;;;;;-5.27;72.14;100392.31;103024;1256;138228;-69
2024/01/07 08:35:47;;;;;;;14.30;9.40;;;;;;;-5.21;72.02;100391.19;103163;1256;97816;-69
2024/01/07 08:38:14;;;;;;;14.80;9.60;;;;;;;-5.14;71.70;100395.31;103076;1256;112039;-69
2024/01/07 08:40:41;;;;;;;16.10;10.00;;;;;;;-5.12;71.90;100397.05;103015;1259;137946;-69
2024/01/07 08:43:08;;;;;;;15.20;10.50;;;;;;;-5.08;71.61;100395.33;103057;1256;98453;-69
2024/01/07 08:45:35;;;;;;;15.90;10.20;;;;;;;-5.09;71.35;100398.52;102987;1256;138069;-68
2024/01/07 08:48:02;;;;;;;15.20;9.70;;;;;;;-5.10;71.54;100397.27;102983;1258;97813;-69
2024/01/07 08:50:29;;;;;;;13.70;9.50;;;;;;;-5.07;71.38;100401.13;103165;1257;138394;-68
2024/01/07 08:52:56;;;;;;;13.90;9.40;;;;;;;-5.10;71.22;100400.35;103290;1256;107104;-69
2024/01/07 08:55:23;;;;;;;14.40;9.50;;;;;;;-5.13;71.41;100397.18;103151;1256;97880;-69
2024/01/07 08:57:51;;;;;;;14.40;10.20;;;;;;;-5.14;71.15;100405.64;103040;1256;138634;-70
2024/01/07 09:00:20;;;;;;;16.40;10.40;;;;;;;-5.16;71.68;100407.60;103112;1260;98004;-70
2024/01/07 09:02:47;;;;;;;14.10;10.40;;;;;;;-5.17;71.30;100412.02;104337;1255;138571;-70
2024/01/07 09:05:14;;;;;;;13.80;10.10;;;;;;;-5.26;70.63;100412.54;102891;1256;1003706;-69
2024/01/07 09:07:41;;;;;;;17.90;10.00;;;;;;;-5.37;70.67;100410.45;103196;1256;97913;-69
2024/01/07 09:10:10;;;;;;;14.20;9.40;;;;;;;-5.42;70.61;100414.16;102366;1257;1003020;-69
2024/01/07 09:12:38;;;;;;;14.90;8.90;;;;;;;-5.50;70.98;100415.09;103494;1255;97818;-68
2024/01/07 09:15:07;;;;;;;13.60;9.20;;;;;;;-5.53;71.10;100415.16;103093;1256;139032;-68
2024/01/07 09:17:35;;;;;;;13.40;8.60;;;;;;;-5.51;71.28;100412.00;103403;1256;107477;-67
2024/01/07 09:20:03;;;;;;;12.40;8.30;;;;;;;-5.41;71.65;100413.69;103263;1256;98810;-72
2024/01/07 09:22:31;;;;;;;12.50;8.50;;;;;;;-5.34;71.25;100412.09;103202;1256;138118;-69
2024/01/07 09:24:58;;;;;;;14.00;9.90;;;;;;;-5.31;71.22;100415.23;103124;1256;98483;-68
2024/01/07 09:27:26;;;;;;;12.50;8.90;;;;;;;-5.22;71.97;100416.22;103162;1259;138454;-70
2024/01/07 09:29:54;;;;;;;11.80;9.30;;;;;;;-5.14;71.22;100416.99;103074;1256;108238;-66
2024/01/07 09:32:21;;;;;;;15.70;9.30;;;;;;;-5.15;70.91;100414.08;103093;1256;97820;-69
2024/01/07 09:34:48;;;;;;;12.60;9.10;;;;;;;-5.18;71.06;100409.25;103248;1256;108596;-69
2024/01/07 09:37:16;;;;;;;13.90;9.70;;;;;;;-5.15;70.90;100405.27;103306;1254;97865;-69
2024/01/07 09:39:44;;;;;;;14.80;10.20;;;;;;;-5.11;71.34;100402.17;102389;1256;1003248;-68
2024/01/07 09:42:15;;;;;;;12.20;9.50;;;;;;;-5.05;71.47;100404.05;103210;1256;108323;-69
2024/01/07 09:44:42;;;;;;;15.50;10.40;;;;;;;-5.01;70.92;100404.05;103404;1256;139877;-69
2024/01/07 09:47:13;;;;;;;15.50;10.60;;;;;;;-5.02;70.63;100403.69;103247;1256;138743;-70
2024/01/07 09:49:40;;;;;;;11.90;8.90;;;;;;;-5.05;70.58;100402.36;103810;1256;97785;-70
2024/01/07 09:52:09;;;;;;;14.50;10.20;;;;;;;-5.08;70.92;100399.57;103256;1256;111950;-67
2024/01/07 09:54:36;;;;;;;13.40;10.00;;;;;;;-5.07;71.09;100396.89;103124;1256;138957;-69
2024/01/07 09:57:07;;;;;;;15.70;10.30;;;;;;;-5.05;70.95;100398.98;103177;1256;97830;-69
2024/01/07 09:59:33;;;;;;;15.10;10.30;;;;;;;-5.04;70.53;100403.24;103001;1256;138506;-69
2024/01/07 10:02:01;;;;;;;14.30;10.50;;;;;;;-5.09;70.54;100400.73;103207;1260;97835;-71
2024/01/07 10:04:30;;;;;;;17.00;10.80;;;;;;;-5.14;69.99;100397.16;103189;1256;111410;-69
2024/01/07 10:06:57;;;;;;;13.40;9.70;;;;;;;-5.24;70.23;100400.23;102935;1257;138372;-70
2024/01/07 10:09:30;;;;;;;15.40;10.00;;;;;;;-5.29;70.56;100399.22;103277;1256;97722;-70
2024/01/07 10:11:57;;;;;;;14.20;9.80;;;;;;;-5.25;70.83;100400.84;103400;1255;140548;-70
2024/01/07 10:14:24;;;;;;;12.60;8.60;;;;;;;-5.20;70.67;100397.63;103252;1255;97922;-69
2024/01/07 10:16:51;;;;;;;15.70;9.50;;;;;;;-5.19;70.37;100399.71;103196;1256;138832;-74
2024/01/07 10:19:24;;;;;;;12.60;9.20;;;;;;;-5.13;70.92;100400.09;103309;1256;106844;-69
2024/01/07 10:22:01;;;;;;;15.00;10.70;;;;;;;-5.08;70.38;100397.20;103186;1257;97798;-73
2024/01/07 10:24:32;;;;;;;14.90;10.30;;;;;;;-5.05;70.33;100396.60;103262;1256;137920;-70
2024/01/07 10:26:59;;;;;;;18.80;12.30;;;;;;;-5.07;69.97;100393.99;103197;1257;97689;-70
2024/01/07 10:29:27;;;;;;;16.40;11.10;;;;;;;-5.08;70.38;100395.15;103151;1258;138376;-71
2024/01/07 10:31:56;;;;;;;14.70;10.70;;;;;;;-5.06;70.61;100396.23;103223;1255;107322;-70
2024/01/07 10:34:28;;;;;;;17.00;11.70;;;;;;;-5.07;70.50;100391.63;103274;1256;97820;-70
2024/01/07 10:36:59;;;;;;;14.70;11.30;;;;;;;-5.08;70.42;100391.44;103172;1256;137945;-70
2024/01/07 10:39:26;;;;;;;17.60;11.70;;;;;;;-5.10;70.61;100393.89;102360;1256;1003839;-69
2024/01/07 10:41:57;;;;;;;15.70;11.40;;;;;;;-5.08;70.71;100393.96;103173;1257;138959;-70
2024/01/07 10:44:24;;;;;;;17.70;11.80;;;;;;;-5.06;70.66;100395.20;103205;1256;107716;-70
2024/01/07 10:46:54;;;;;;;18.70;11.50;;;;;;;-5.03;70.67;100393.64;103067;1259;138682;-69
2024/01/07 10:49:22;;;;;;;18.10;12.20;;;;;;;-5.05;70.58;100396.95;103287;1256;108871;-69
2024/01/07 10:51:57;;;;;;;16.00;11.30;;;;;;;-5.05;70.47;100393.38;103191;1256;97859;-70
2024/01/07 10:54:29;;;;;;;19.60;12.70;;;;;;;-5.06;70.59;100395.05;103061;1256;137225;-70
2024/01/07 10:57:01;;;;;;;16.80;11.40;;;;;;;-5.08;70.70;100398.20;103221;1259;108062;-70
2024/01/07 10:59:30;;;;;;;17.20;11.50;;;;;;;-5.14;70.48;100404.61;103089;1256;138319;-72